createdAt,value
2023-04-06T00:02:06.544Z,102366.72
2023-04-06T00:04:34.471Z,102389.44
2023-04-06T00:07:03.710Z,102334.03
2023-04-06T00:09:31.731Z,102368.88
2023-04-06T00:11:59.882Z,102370.53
2023-04-06T00:14:27.860Z,102399.16
2023-04-06T00:16:55.843Z,102404.00
2023-04-06T00:19:23.825Z,102398.56
2023-04-06T00:21:51.715Z,102396.75
2023-04-06T00:24:21.378Z,102400.09
2023-04-06T00:26:49.334Z,102387.22
2023-04-06T00:29:17.286Z,102393.09
2023-04-06T00:31:45.459Z,102402.66
2023-04-06T00:34:13.500Z,102397.50
2023-04-06T00:36:41.781Z,102396.44
2023-04-06T00:39:09.986Z,102304.44
2023-04-06T00:41:40.477Z,102392.81
2023-04-06T00:44:08.666Z,102401.44
2023-04-06T00:46:37.789Z,102398.72
2023-04-06T00:49:06.305Z,102399.47
2023-04-06T00:51:34.597Z,102404.63
2023-04-06T00:54:02.572Z,102401.91
2023-04-06T00:56:30.659Z,102399.19
2023-04-06T00:59:00.416Z,102401.00
2023-04-06T01:01:29.861Z,102398.44
2023-04-06T01:03:57.860Z,102350.28
2023-04-06T01:06:25.830Z,102407.53
2023-04-06T01:08:53.844Z,102384.81
2023-04-06T01:11:22.001Z,102382.84
2023-04-06T01:13:50.368Z,102302.63
2023-04-06T01:16:19.876Z,102322.31
2023-04-06T01:18:47.898Z,102345.31
2023-04-06T01:21:17.364Z,102403.59
2023-04-06T01:23:47.888Z,102401.94
2023-04-06T01:26:16.232Z,102386.03
2023-04-06T01:28:45.301Z,102404.97
2023-04-06T01:31:13.405Z,102403.28
2023-04-06T01:33:41.462Z,102406.03
2023-04-06T01:36:09.772Z,102355.59
2023-04-06T01:38:37.763Z,102403.56
2023-04-06T01:41:07.132Z,102232.13
2023-04-06T01:43:35.062Z,102368.31
2023-04-06T01:46:03.211Z,102404.78
2023-04-06T01:48:31.225Z,102406.13
2023-04-06T01:50:59.042Z,102410.97
2023-04-06T01:53:27.164Z,102375.50
2023-04-06T01:55:55.076Z,102411.22
2023-04-06T01:58:24.272Z,102392.88
2023-04-06T02:00:52.391Z,102254.16
2023-04-06T02:03:20.348Z,102411.94
2023-04-06T02:05:48.248Z,102375.59
2023-04-06T02:08:16.366Z,102322.16
2023-04-06T02:10:44.354Z,102407.16
2023-04-06T02:13:12.200Z,102406.53
2023-04-06T02:15:41.635Z,102407.72
2023-04-06T02:18:10.648Z,102369.63
2023-04-06T02:20:38.733Z,102322.56
2023-04-06T02:23:06.814Z,102412.09
2023-04-06T02:25:34.776Z,102411.47
2023-04-06T02:28:02.605Z,102415.84
2023-04-06T02:30:30.671Z,102416.16
2023-04-06T02:33:00.032Z,102411.13
2023-04-06T02:35:27.981Z,102415.53
2023-04-06T02:37:56.071Z,102405.34
2023-04-06T02:40:24.087Z,102415.97
2023-04-06T02:42:53.183Z,102420.34
2023-04-06T02:45:21.537Z,102409.28
2023-04-06T02:47:49.536Z,102412.13
2023-04-06T02:50:18.765Z,102307.50
2023-04-06T02:52:46.776Z,102413.03
2023-04-06T02:55:14.968Z,102419.13
2023-04-06T02:57:42.828Z,102331.25
2023-04-06T03:00:12.348Z,102310.22
2023-04-06T03:02:40.637Z,102416.06
2023-04-06T03:05:09.039Z,102421.50
2023-04-06T03:07:38.411Z,102417.25
2023-04-06T03:10:07.356Z,102353.84
2023-04-06T03:12:35.224Z,102412.84
2023-04-06T03:15:03.350Z,102423.31
2023-04-06T03:17:31.435Z,102336.06
2023-04-06T03:19:59.301Z,102416.63
2023-04-06T03:22:27.275Z,102374.88
2023-04-06T03:24:56.668Z,102428.75
2023-04-06T03:27:24.636Z,102421.16
2023-04-06T03:29:52.650Z,102418.72
2023-04-06T03:32:20.674Z,102424.81
2023-04-06T03:34:48.522Z,102425.72
2023-04-06T03:37:16.512Z,102427.53
2023-04-06T03:39:44.583Z,102401.34
2023-04-06T03:42:13.960Z,102353.38
2023-04-06T03:44:42.004Z,102410.00
2023-04-06T03:47:09.937Z,102431.91
2023-04-06T03:49:40.417Z,102435.56
2023-04-06T03:52:08.611Z,102434.78
2023-04-06T03:54:37.275Z,102431.91
2023-04-06T03:57:06.093Z,102439.66
2023-04-06T03:59:35.540Z,102399.38
2023-04-06T04:02:03.560Z,102370.34
2023-04-06T04:04:31.534Z,102449.94
2023-04-06T04:06:59.567Z,102439.75
2023-04-06T04:09:29.712Z,102447.63
2023-04-06T04:11:57.834Z,102449.31
2023-04-06T04:14:26.595Z,102292.63
2023-04-06T04:16:55.942Z,102443.25
2023-04-06T04:19:23.822Z,102448.69
2023-04-06T04:21:51.794Z,102467.81
2023-04-06T04:24:19.762Z,102449.59
2023-04-06T04:26:47.599Z,102454.28
2023-04-06T04:29:16.703Z,102424.47
2023-04-06T04:31:44.725Z,102459.59
2023-04-06T04:34:14.090Z,102421.75
2023-04-06T04:36:43.229Z,102462.31
2023-04-06T04:39:11.145Z,102416.28
2023-04-06T04:41:39.066Z,102461.81
2023-04-06T04:44:07.065Z,102455.13
2023-04-06T04:46:34.988Z,102471.97
2023-04-06T04:49:02.825Z,102466.94
2023-04-06T04:51:32.956Z,102471.47
2023-04-06T04:54:00.902Z,102469.94
2023-04-06T04:56:29.867Z,102471.00
2023-04-06T04:58:57.956Z,102478.25
2023-04-06T05:01:26.144Z,102480.06
2023-04-06T05:03:54.159Z,102453.13
2023-04-06T05:06:22.301Z,102473.66
2023-04-06T05:08:51.589Z,102426.44
2023-04-06T05:11:19.576Z,102420.09
2023-04-06T05:13:47.642Z,102489.22
2023-04-06T05:16:15.951Z,102481.75
2023-04-06T05:18:43.943Z,102483.09
2023-04-06T05:21:13.118Z,102430.84
2023-04-06T05:23:41.048Z,102479.53
2023-04-06T05:26:10.296Z,102479.94
2023-04-06T05:28:38.342Z,102482.19
2023-04-06T05:31:06.683Z,102417.25
2023-04-06T05:33:34.677Z,102425.97
2023-04-06T05:36:02.958Z,102489.38
2023-04-06T05:38:31.126Z,102490.53
2023-04-06T05:40:59.261Z,102455.97
2023-04-06T05:43:28.621Z,102484.38
2023-04-06T05:45:56.574Z,102495.13
2023-04-06T05:48:24.514Z,102491.16
2023-04-06T05:50:52.955Z,102495.97
2023-04-06T05:53:22.068Z,102351.56
2023-04-06T05:55:49.926Z,102497.69
2023-04-06T05:58:18.361Z,102475.91
2023-04-06T06:00:48.082Z,102381.69
2023-04-06T06:03:16.398Z,102475.41
2023-04-06T06:05:44.462Z,102502.13
2023-04-06T06:08:12.444Z,102505.25
2023-04-06T06:10:44.038Z,102509.56
2023-04-06T06:13:12.554Z,102374.94
2023-04-06T06:15:40.558Z,102512.31
2023-04-06T06:18:09.853Z,102510.16
2023-04-06T06:20:37.850Z,102489.28
2023-04-06T06:23:05.857Z,102507.72
2023-04-06T06:25:34.406Z,102436.31
2023-04-06T06:28:02.475Z,102485.97
2023-04-06T06:30:30.920Z,102505.63
2023-04-06T06:32:58.945Z,102494.25
2023-04-06T06:35:28.461Z,102517.44
2023-04-06T06:37:56.723Z,102512.38
2023-04-06T06:40:25.401Z,102497.09
2023-04-06T06:42:53.425Z,102509.28
2023-04-06T06:45:21.590Z,102512.66
2023-04-06T06:47:49.555Z,102479.25
2023-04-06T06:50:17.616Z,102512.69
2023-04-06T06:52:47.112Z,102510.59
2023-04-06T06:55:15.005Z,102515.00
2023-04-06T06:57:43.588Z,102523.44
2023-04-06T07:00:13.513Z,102510.59
2023-04-06T07:02:41.960Z,102473.28
2023-04-06T07:05:24.312Z,102520.13
2023-04-06T07:07:57.151Z,102520.63
2023-04-06T07:10:25.464Z,102515.19
2023-04-06T07:12:53.306Z,102513.22
2023-04-06T07:15:21.277Z,102513.06
2023-04-06T07:17:49.319Z,102521.84
2023-04-06T07:20:17.375Z,102519.31
2023-04-06T07:22:46.056Z,102517.47
2023-04-06T07:25:15.503Z,102525.19
2023-04-06T07:27:43.409Z,102523.22
2023-04-06T07:30:11.917Z,102530.03
2023-04-06T07:32:40.092Z,102531.66
2023-04-06T07:35:08.398Z,102527.97
2023-04-06T07:37:36.539Z,102526.47
2023-04-06T07:40:04.498Z,102524.16
2023-04-06T07:42:34.176Z,102531.19
2023-04-06T07:45:02.258Z,102533.69
2023-04-06T07:47:30.175Z,102530.09
2023-04-06T07:49:58.110Z,102509.03
2023-04-06T07:52:26.118Z,102527.72
2023-04-06T07:54:54.081Z,102523.09
2023-04-06T07:57:21.909Z,102525.94
2023-04-06T07:59:51.408Z,102532.16
2023-04-06T08:02:19.621Z,102528.31
2023-04-06T08:04:47.649Z,102534.78
2023-04-06T08:07:15.719Z,102533.31
2023-04-06T08:09:43.657Z,102519.28
2023-04-06T08:12:11.526Z,102520.06
2023-04-06T08:14:39.538Z,102532.66
2023-04-06T08:17:09.406Z,102532.09
2023-04-06T08:19:38.502Z,102494.97
2023-04-06T08:22:06.473Z,102534.28
2023-04-06T08:24:34.793Z,102473.69
2023-04-06T08:27:02.703Z,102540.31
2023-04-06T08:29:30.561Z,102510.44
2023-04-06T08:31:58.890Z,102546.56
2023-04-06T08:34:28.147Z,102543.34
2023-04-06T08:36:56.007Z,102549.06
2023-04-06T08:39:26.681Z,102482.72
2023-04-06T08:41:58.015Z,102535.22
2023-04-06T08:44:26.384Z,102542.47
2023-04-06T08:46:54.662Z,102538.72
2023-04-06T08:49:23.269Z,102540.22
2023-04-06T08:51:53.336Z,102541.94
2023-04-06T08:54:21.302Z,102535.66
2023-04-06T08:56:50.636Z,102534.16
2023-04-06T08:59:18.724Z,102531.19
2023-04-06T09:01:47.873Z,102528.78
2023-04-06T09:04:16.437Z,102531.19
2023-04-06T09:06:45.097Z,102530.06
2023-04-06T09:09:14.392Z,102510.41
2023-04-06T09:11:46.719Z,102519.44
2023-04-06T09:14:14.812Z,102438.59
2023-04-06T09:16:43.679Z,102525.81
2023-04-06T09:19:11.856Z,102494.28
2023-04-06T09:21:40.981Z,102533.97
2023-04-06T09:24:10.735Z,102513.50
2023-04-06T09:26:49.884Z,102493.47
2023-04-06T09:29:28.411Z,102527.41
2023-04-06T09:32:04.839Z,102529.22
2023-04-06T09:34:33.110Z,102525.81
2023-04-06T09:37:01.155Z,102523.41
2023-04-06T09:39:29.107Z,102485.00
2023-04-06T09:41:58.542Z,102507.78
2023-04-06T09:44:27.086Z,102515.06
2023-04-06T09:47:00.798Z,102511.66
2023-04-06T09:49:32.614Z,102516.34
2023-04-06T09:52:03.781Z,102515.66
2023-04-06T09:54:33.319Z,102519.75
2023-04-06T09:57:09.903Z,102504.69
2023-04-06T09:59:47.019Z,102514.06
2023-04-06T10:02:26.664Z,102478.53
2023-04-06T10:05:01.196Z,102475.00
2023-04-06T10:07:29.473Z,102515.53
2023-04-06T10:09:57.943Z,102518.16
2023-04-06T10:12:27.211Z,102523.59
2023-04-06T10:14:55.988Z,102524.09
2023-04-06T10:17:25.373Z,102475.34
2023-04-06T10:19:57.439Z,102524.38
2023-04-06T10:22:31.783Z,102509.00
2023-04-06T10:25:00.749Z,102511.19
2023-04-06T10:27:34.766Z,102532.41
2023-04-06T10:30:07.462Z,102521.44
2023-04-06T10:32:37.912Z,102527.16
2023-04-06T10:35:10.287Z,102506.38
2023-04-06T10:37:53.325Z,102494.25
2023-04-06T10:40:23.935Z,102515.84
2023-04-06T10:42:53.808Z,102518.25
2023-04-06T10:45:22.793Z,102499.47
2023-04-06T10:47:51.336Z,102517.44
2023-04-06T10:50:19.788Z,102512.22
2023-04-06T10:52:48.358Z,102463.22
2023-04-06T10:55:17.833Z,102511.94
2023-04-06T10:57:48.633Z,102518.94
2023-04-06T11:00:19.227Z,102442.75
2023-04-06T11:02:47.456Z,102461.88
2023-04-06T11:05:15.336Z,102513.09
2023-04-06T11:07:43.736Z,102512.19
2023-04-06T11:10:17.590Z,102508.25
2023-04-06T11:12:47.322Z,102457.53
2023-04-06T11:15:15.539Z,102500.31
2023-04-06T11:17:46.049Z,102508.16
2023-04-06T11:20:14.478Z,102501.28
2023-04-06T11:22:50.833Z,102495.81
2023-04-06T11:25:19.201Z,102398.91
2023-04-06T11:27:48.539Z,102498.56
2023-04-06T11:30:16.740Z,102494.63
2023-04-06T11:32:47.711Z,102488.16
2023-04-06T11:35:22.388Z,102482.81
2023-04-06T11:37:51.093Z,102496.09
2023-04-06T11:40:23.445Z,102371.53
2023-04-06T11:42:55.263Z,102494.81
2023-04-06T11:45:23.738Z,102426.69
2023-04-06T11:48:00.610Z,102495.88
2023-04-06T11:50:36.161Z,102448.84
2023-04-06T11:53:04.903Z,102484.38
2023-04-06T11:55:39.839Z,102472.09
2023-04-06T11:58:08.374Z,102487.75
2023-04-06T12:00:38.139Z,102456.38
2023-04-06T12:03:07.467Z,102483.28
2023-04-06T12:05:36.227Z,102445.28
2023-04-06T12:08:04.363Z,102409.19
2023-04-06T12:10:32.539Z,102478.69
2023-04-06T12:13:00.539Z,102485.56
2023-04-06T12:15:28.604Z,102478.72
2023-04-06T12:17:56.552Z,102471.56
2023-04-06T12:20:27.446Z,102473.47
2023-04-06T12:22:55.765Z,102467.59
2023-04-06T12:25:23.570Z,102450.78
2023-04-06T12:27:51.724Z,102472.97
2023-04-06T12:30:19.775Z,102469.03
2023-04-06T12:32:50.431Z,102467.84
2023-04-06T12:35:19.374Z,102467.38
2023-04-06T12:37:48.659Z,102461.91
2023-04-06T12:40:16.552Z,102464.06
2023-04-06T12:42:44.442Z,102448.66
2023-04-06T12:45:13.044Z,102447.13
2023-04-06T12:47:40.916Z,102463.44
2023-04-06T12:50:09.749Z,102455.97
2023-04-06T12:52:37.714Z,102443.44
2023-04-06T12:55:07.899Z,102459.50
2023-04-06T12:57:36.093Z,102453.97
2023-04-06T13:00:05.562Z,102451.03
2023-04-06T13:02:35.112Z,102456.84
2023-04-06T13:05:03.208Z,102454.88
2023-04-06T13:07:31.129Z,102448.00
2023-04-06T13:09:59.138Z,102446.78
2023-04-06T13:12:28.519Z,102411.69
2023-04-06T13:14:56.862Z,102445.91
2023-04-06T13:17:24.809Z,102448.38
2023-04-06T13:19:52.758Z,102425.88
2023-04-06T13:22:20.851Z,102434.38
2023-04-06T13:24:48.713Z,102437.06
2023-04-06T13:27:16.736Z,102444.97
2023-04-06T13:29:46.018Z,102368.91
2023-04-06T13:32:14.010Z,102435.38
2023-04-06T13:34:45.935Z,102441.16
2023-04-06T13:37:14.973Z,102444.88
2023-04-06T13:39:42.760Z,102422.28
2023-04-06T13:42:11.294Z,102428.97
2023-04-06T13:44:39.324Z,102432.75
2023-04-06T13:47:08.568Z,102418.25
2023-04-06T13:49:37.040Z,102426.69
2023-04-06T13:52:05.451Z,102416.47
2023-04-06T13:54:33.284Z,102406.91
2023-04-06T13:57:01.632Z,102415.59
2023-04-06T13:59:35.125Z,102409.53
2023-04-06T14:02:03.969Z,102408.88
2023-04-06T14:04:33.969Z,102416.72
2023-04-06T14:07:02.922Z,102408.44
2023-04-06T14:09:31.730Z,102410.06
2023-04-06T14:11:59.738Z,102412.91
2023-04-06T14:14:28.364Z,102249.91
2023-04-06T14:16:56.807Z,102389.47
2023-04-06T14:19:24.840Z,102400.84
2023-04-06T14:21:54.651Z,102402.47
2023-04-06T14:24:22.929Z,102392.31
2023-04-06T14:26:50.937Z,102375.41
2023-04-06T14:29:18.756Z,102363.63
2023-04-06T14:31:48.027Z,102379.09
2023-04-06T14:34:16.093Z,102387.91
2023-04-06T14:36:44.121Z,102384.50
2023-04-06T14:39:13.481Z,102382.56
2023-04-06T14:41:41.909Z,102381.91
2023-04-06T14:44:13.207Z,102389.53
2023-04-06T14:46:41.236Z,102379.56
2023-04-06T14:49:10.009Z,102374.03
2023-04-06T14:51:37.970Z,102371.38
2023-04-06T14:54:06.028Z,102342.75
2023-04-06T14:56:35.566Z,102355.44
2023-04-06T14:59:04.073Z,102360.31
2023-04-06T15:01:32.140Z,102357.81
2023-04-06T15:04:00.690Z,102328.84
2023-04-06T15:06:28.685Z,102365.53
2023-04-06T15:08:56.531Z,102369.66
2023-04-06T15:11:24.633Z,102349.69
2023-04-06T15:13:53.856Z,102370.50
2023-04-06T15:16:21.809Z,102325.03
2023-04-06T15:18:50.170Z,102387.19
2023-04-06T15:21:20.868Z,102389.88
2023-04-06T15:23:49.056Z,102388.56
2023-04-06T15:26:18.140Z,102390.25
2023-04-06T15:28:46.044Z,102374.25
2023-04-06T15:31:35.963Z,102365.44
2023-04-06T15:34:05.176Z,102307.72
2023-04-06T15:36:33.428Z,102303.00
2023-04-06T15:39:01.799Z,102400.91
2023-04-06T15:41:29.639Z,102395.66
2023-04-06T15:43:57.766Z,102400.25
2023-04-06T15:46:28.293Z,102394.34
2023-04-06T15:48:56.974Z,102396.88
2023-04-06T15:51:26.472Z,102389.03
2023-04-06T15:53:54.393Z,102384.13
2023-04-06T15:56:22.269Z,102387.31
2023-04-06T15:58:50.249Z,102371.97
2023-04-06T16:01:19.591Z,102384.91
2023-04-06T16:03:48.986Z,102384.09
2023-04-06T16:06:17.190Z,102320.19
2023-04-06T16:08:45.160Z,102392.53
2023-04-06T16:11:13.736Z,102325.91
2023-04-06T16:13:44.969Z,102384.63
2023-04-06T16:16:15.058Z,102382.59
2023-04-06T16:18:43.193Z,102303.63
2023-04-06T16:21:16.404Z,102390.81
2023-04-06T16:23:45.691Z,102386.69
2023-04-06T16:26:14.294Z,102388.88
2023-04-06T16:28:42.639Z,102395.84
2023-04-06T16:31:19.164Z,102391.41
2023-04-06T16:33:47.140Z,102394.31
2023-04-06T16:36:16.721Z,102357.09
2023-04-06T16:38:44.801Z,102380.03
2023-04-06T16:41:12.675Z,102396.78
2023-04-06T16:43:40.641Z,102385.94
2023-04-06T16:46:08.915Z,102395.69
2023-04-06T16:48:36.816Z,102398.28
2023-04-06T16:51:05.887Z,102361.78
2023-04-06T16:53:35.690Z,102119.19
2023-04-06T16:56:05.104Z,102405.78
2023-04-06T16:58:33.327Z,102398.91
2023-04-06T17:01:01.915Z,102324.75
2023-04-06T17:03:30.850Z,102435.09
2023-04-06T17:05:59.053Z,102331.06
2023-04-06T17:08:27.032Z,102411.03
2023-04-06T17:11:02.715Z,102410.56
2023-04-06T17:13:31.868Z,102408.97
2023-04-06T17:16:00.582Z,102412.69
2023-04-06T17:18:30.070Z,102417.84
2023-04-06T17:20:58.486Z,102422.59
2023-04-06T17:23:27.065Z,102403.09
2023-04-06T17:25:57.907Z,102425.38
2023-04-06T17:28:26.321Z,102423.09
2023-04-06T17:30:54.399Z,102428.06
2023-04-06T17:33:22.239Z,102428.59
2023-04-06T17:35:50.279Z,102414.56
2023-04-06T17:38:18.159Z,102369.03
2023-04-06T17:40:45.988Z,102440.09
2023-04-06T17:43:15.198Z,102427.66
2023-04-06T17:45:43.140Z,102439.63
2023-04-06T17:48:11.222Z,102429.53
2023-04-06T17:50:40.115Z,102408.78
2023-04-06T17:53:08.512Z,102435.47
2023-04-06T17:55:36.663Z,102434.31
2023-04-06T17:58:04.924Z,102435.88
2023-04-06T18:00:34.223Z,102364.09
2023-04-06T18:03:02.349Z,102413.16
2023-04-06T18:05:30.564Z,102398.41
2023-04-06T18:08:00.671Z,102403.38
2023-04-06T18:10:28.637Z,102440.50
2023-04-06T18:12:56.876Z,102435.19
2023-04-06T18:15:24.844Z,102442.47
2023-04-06T18:17:54.154Z,102439.94
2023-04-06T18:20:22.299Z,102445.00
2023-04-06T18:25:18.735Z,102450.59
2023-04-06T18:27:46.730Z,102404.00
2023-04-06T18:30:17.663Z,102454.00
2023-04-06T18:32:45.578Z,102417.63
2023-04-06T18:35:15.068Z,102456.09
2023-04-06T18:37:43.009Z,102456.75
2023-04-06T18:40:31.854Z,102456.75
2023-04-06T18:42:59.768Z,102384.91
2023-04-06T18:45:27.828Z,102457.28
2023-04-06T18:47:57.327Z,102458.97
2023-04-06T18:50:27.225Z,102457.94
2023-04-06T18:52:55.379Z,102500.22
2023-04-06T18:55:23.519Z,102370.44
2023-04-06T18:57:51.379Z,102462.88
2023-04-06T19:00:19.762Z,102468.84
2023-04-06T19:02:48.019Z,102357.25
2023-04-06T19:05:16.604Z,102445.41
2023-04-06T19:07:50.719Z,102458.22
2023-04-06T19:10:18.807Z,102469.00
2023-04-06T19:12:47.751Z,102360.25
2023-04-06T19:15:15.827Z,102423.16
2023-04-06T19:17:44.225Z,102463.16
2023-04-06T19:20:12.688Z,102464.72
2023-04-06T19:22:40.749Z,102466.28
2023-04-06T19:25:10.977Z,102462.78
2023-04-06T19:27:39.287Z,102461.63
2023-04-06T19:30:09.952Z,102467.72
2023-04-06T19:32:37.960Z,102465.13
2023-04-06T19:35:08.662Z,102376.03
2023-04-06T19:37:37.865Z,102467.56
2023-04-06T19:40:10.442Z,102474.56
2023-04-06T19:42:39.887Z,102362.22
2023-04-06T19:45:08.995Z,102478.59
2023-04-06T19:47:36.893Z,102481.06
2023-04-06T19:50:05.678Z,102478.97
2023-04-06T19:52:33.784Z,102443.75
2023-04-06T19:55:01.612Z,102388.50
2023-04-06T19:57:29.476Z,102472.25
2023-04-06T19:59:58.853Z,102459.28
2023-04-06T20:02:27.165Z,102470.81
2023-04-06T20:04:55.214Z,102434.03
2023-04-06T20:07:23.280Z,102472.13
2023-04-06T20:09:51.672Z,102474.31
2023-04-06T20:12:19.893Z,102474.84
2023-04-06T20:14:47.880Z,102382.41
2023-04-06T20:17:17.159Z,102364.66
2023-04-06T20:19:45.126Z,102434.94
2023-04-06T20:22:13.072Z,102481.84
2023-04-06T20:24:40.930Z,102410.63
2023-04-06T20:27:08.838Z,102479.75
2023-04-06T20:29:36.811Z,102342.75
2023-04-06T20:32:04.776Z,102472.38
2023-04-06T20:34:34.076Z,102432.78
2023-04-06T20:37:01.959Z,102451.50
2023-04-06T20:39:30.737Z,102477.69
2023-04-06T20:41:58.773Z,102474.97
2023-04-06T20:44:26.769Z,102480.28
2023-04-06T20:46:55.112Z,102384.19
2023-04-06T20:49:24.186Z,102449.44
2023-04-06T20:51:53.560Z,102473.03
2023-04-06T20:54:21.603Z,102444.91
2023-04-06T20:56:49.683Z,102467.84
2023-04-06T20:59:17.609Z,102472.75
2023-04-06T21:01:45.600Z,102409.97
2023-04-06T21:04:13.812Z,102475.34
2023-04-06T21:06:42.037Z,102483.38
2023-04-06T21:09:11.323Z,102473.28
2023-04-06T21:11:39.199Z,102455.78
2023-04-06T21:14:07.474Z,102478.19
2023-04-06T21:16:35.590Z,102478.84
2023-04-06T21:19:03.637Z,102456.31
2023-04-06T21:21:31.712Z,102477.94
2023-04-06T21:24:00.328Z,102480.53
2023-04-06T21:26:29.913Z,102477.03
2023-04-06T21:28:57.954Z,102419.03
2023-04-06T21:31:25.930Z,102473.41
2023-04-06T21:33:54.047Z,102339.91
2023-04-06T21:36:22.190Z,102455.25
2023-04-06T21:38:50.045Z,102382.88
2023-04-06T21:41:18.035Z,102419.53
2023-04-06T21:43:47.378Z,102480.28
2023-04-06T21:46:15.294Z,102480.53
2023-04-06T21:48:43.393Z,102439.75
2023-04-06T21:51:17.835Z,102480.03
2023-04-06T21:53:45.946Z,102479.91
2023-04-06T21:56:14.008Z,102470.56
2023-04-06T21:58:42.086Z,102470.81
2023-04-06T22:01:12.841Z,102442.22
2023-04-06T22:03:40.969Z,102471.97
2023-04-06T22:06:09.357Z,102466.53
2023-04-06T22:08:37.735Z,102470.03
2023-04-06T22:11:09.269Z,102441.44
2023-04-06T22:13:37.643Z,102480.53
2023-04-06T22:16:06.972Z,102466.78
2023-04-06T22:18:38.910Z,102460.84
2023-04-06T22:21:07.634Z,102471.34
2023-04-06T22:23:41.978Z,102468.59
2023-04-06T22:26:10.770Z,102421.22
2023-04-06T22:28:38.900Z,102445.44
2023-04-06T22:31:06.917Z,102466.53
2023-04-06T22:33:36.322Z,102370.97
2023-04-06T22:36:04.356Z,102467.44
2023-04-06T22:38:32.278Z,102408.00
2023-04-06T22:41:00.305Z,102464.88
2023-04-06T22:43:28.127Z,102426.28
2023-04-06T22:45:56.190Z,102414.34
2023-04-06T22:48:24.652Z,102358.00
2023-04-06T22:50:54.267Z,102467.09
2023-04-06T22:53:22.075Z,102476.66
2023-04-06T22:55:50.190Z,102468.91
2023-04-06T22:58:18.016Z,102466.31
2023-04-06T23:00:45.985Z,102468.00
2023-04-06T23:03:14.262Z,102470.44
2023-04-06T23:05:42.332Z,102352.81
2023-04-06T23:08:11.702Z,102467.59
2023-04-06T23:10:42.203Z,102461.25
2023-04-06T23:13:10.195Z,102341.16
2023-04-06T23:15:38.100Z,102413.69
2023-04-06T23:18:06.395Z,102468.63
2023-04-06T23:20:34.238Z,102382.97
2023-04-06T23:23:02.140Z,102449.16
2023-04-06T23:25:31.579Z,102463.69
2023-04-06T23:27:59.430Z,102447.09
2023-04-06T23:30:27.248Z,102444.22
2023-04-06T23:32:55.306Z,102471.19
2023-04-06T23:35:23.207Z,102467.56
2023-04-06T23:37:51.128Z,102468.31
2023-04-06T23:40:19.490Z,102466.38
2023-04-06T23:42:48.673Z,102469.09
2023-04-06T23:45:16.705Z,102453.28
2023-04-06T23:47:46.025Z,102448.75
2023-04-06T23:50:14.077Z,102465.59
2023-04-06T23:52:42.116Z,102395.63
2023-04-06T23:55:10.993Z,102460.03
2023-04-06T23:57:38.826Z,102465.19
